aviador You're here:

WBGB Decoded Metar

BINTULU in MALAYSIA
Report Time2017-07-24 16:00:00
UTC Time2017-07-24 16:39:46
Flight Rules vfr VFR
WindCalm
Visibility9999 m
Phenomena:N/A
Clouds:Few 016 Hf
Scattered 150 Hf
Broken 300 Hf
Ceiling30,000 ft
Temp26°C (ISA +11)
Dew Point26°C (100% RH)
QNH1009 hPa
Density Alt1,867 ft
Elevation16 ft
Report Wrong Elevation
Raw Report
METAR WBGB 241600Z 00000KT 9999 FEW016 SCT150 BKN300 26/26 Q1009=

Extra information for WBGB:More info

Metar Taf Metar & Taf Last 4 Metars F.Rules Stats Wind Profile Meteogram Temp Stats Airport Information Weather charts Add Link Nearby VenuesMetar ALERT Operation Metar Decoded Social comments